| Data: 06/05/2026, Hora: 22:15 | |||||
| Act. | Màx. | Hora màxima | Mín. | Hora mínima | |
| Temperatura | 12,2 °C | 21,1 °C | 16:12 | 8,3 °C | 07:07 |
| Humitat | 89 % | 97 % | 01:58 | 36 % | 15:27 |
| Pressió | 1.014,3 hPa | 1.042,9 hPa | 04:57 | 1.010,9 hPa | 03:52 |
| Vent | 0 km/h | 26 km/h | 17:28 | ![]() |
|
| Direcció | N | ||||
| Precipitació | 0,0 mm | ||||
| Horari | Temperatura | Humitat | Pressió | Vent | Pluja | ||||||||
| Act. | Màx. | Mín. | Act. | Màx. | Mín. | Act. | Màx. | Mín. | Act. | Dir. | Màx. | ||
| 00:01 - 01:00 | 10,4 | 10,6 | 10,0 | 99 | 100 | 98 | 1012,0 | 1012,2 | 1011,6 | 2 | ESE | 16 | |
| 01:01 - 02:00 | 10,0 | 10,0 | 10,0 | 98 | 100 | 96 | 1011,6 | 1011,9 | 1011,6 | 2 | ENE | 16 | |
| 02:01 - 03:00 | 10,1 | 10,6 | 9,4 | 88 | 96 | 83 | 1011,5 | 1011,6 | 1011,2 | 0 | NE | 8 | |
| 03:01 - 04:00 | 9,7 | 10,0 | 9,4 | 85 | 87 | 82 | 1011,1 | 1011,2 | 1010,9 | 0 | N | 5 | |
| 04:01 - 05:00 | 9,6 | 10,6 | 8,9 | 85 | 94 | 82 | 1011,2 | 1042,9 | 1011,2 | 0 | N | 1 | |
| 05:01 - 06:00 | 8,5 | 8,9 | 8,3 | 90 | 93 | 88 | 1011,2 | 1011,2 | 1011,2 | 1 | NE | 10 | |
| 06:01 - 07:00 | 9,1 | 9,4 | 8,9 | 85 | 88 | 83 | 1011,4 | 1011,6 | 1011,2 | 1 | E | 10 | |
| 07:01 - 08:00 | 9,5 | 10,6 | 8,3 | 88 | 94 | 78 | 1012,1 | 1012,6 | 1011,6 | 2 | E | 19 | |
| 08:01 - 09:00 | 11,8 | 12,2 | 10,6 | 73 | 81 | 68 | 1012,7 | 1012,9 | 1012,6 | 5 | SE | 26 | |
| 09:01 - 10:00 | 13,7 | 16,1 | 12,2 | 66 | 71 | 57 | 1013,2 | 1013,9 | 1012,9 | 4 | SSE | 26 | |
| 10:01 - 11:00 | 16,4 | 17,2 | 15,6 | 59 | 64 | 52 | 1014,1 | 1014,3 | 1013,9 | 2 | SE | 14 | |
| 11:01 - 12:00 | 17,2 | 17,8 | 16,1 | 53 | 58 | 49 | 1014,6 | 1014,6 | 1014,3 | 2 | ESE | 13 | |
| 12:01 - 13:00 | 18,7 | 19,4 | 17,8 | 50 | 54 | 47 | 1014,3 | 1014,6 | 1014,3 | 2 | SW | 14 | |
| 13:01 - 14:00 | 19,1 | 19,4 | 18,3 | 48 | 50 | 43 | 1014,0 | 1014,3 | 1013,6 | 1 | SSW | 13 | |
| 14:01 - 15:00 | 19,3 | 20,0 | 18,9 | 44 | 47 | 40 | 1013,6 | 1013,6 | 1013,6 | 2 | SSE | 16 | |
| 15:01 - 16:00 | 20,3 | 21,1 | 19,4 | 42 | 46 | 36 | 1013,5 | 1013,6 | 1013,3 | 1 | ESE | 10 | |
| 16:01 - 17:00 | 19,5 | 21,1 | 18,3 | 46 | 53 | 38 | 1013,0 | 1013,3 | 1012,6 | 6 | ESE | 23 | |
| 17:01 - 18:00 | 19,0 | 20,0 | 17,8 | 51 | 56 | 46 | 1012,6 | 1012,9 | 1012,6 | 7 | SSE | 26 | |
| 18:01 - 19:00 | 18,1 | 18,9 | 17,2 | 53 | 56 | 49 | 1012,8 | 1012,9 | 1012,6 | 2 | SSW | 18 | |
| 19:01 - 20:00 | 17,5 | 18,3 | 16,7 | 57 | 61 | 54 | 1013,1 | 1013,3 | 1012,9 | 5 | NE | 19 | |
| 20:01 - 21:00 | 15,2 | 16,7 | 13,9 | 68 | 78 | 62 | 1013,3 | 1013,6 | 1013,3 | 1 | NNE | 16 | |
| 21:01 - 22:00 | 13,0 | 13,3 | 12,8 | 83 | 89 | 78 | 1013,6 | 1013,9 | 1013,3 | 0 | ENE | 10 | |
| 22:01 - 22:15 | 12,2 | 12,2 | 12,2 | 89 | 89 | 89 | 1014,1 | 1014,3 | 1013,9 | 0 | N | 0 | |
| 14,3 | 21,1 | 8,3 | 69 | 100 | 36 | 1012,8 | 1042,9 | 1010,9 | 2 | ESE | 26 | 0,0 | |